Latest Weather Observations for Warburto Point

IDS60801

Issued at 11:31 pm CST Thursday 28 May 2015 (issued every 30 minutes, with the page automatically refreshed every 10 minutes)

About weather observations | Map of weather stations | Latest weather observations for SA | Other Formats
Station Details ID: 022053 Name: WARBURTO POINT Lat: -34.00 Lon: 137.53 Height: 1.0 m
Data from the previous 72 hours. | See also: Recent months for locations in South Australia
Date/Time
CST
Temp
°C
App
Temp
°C
Dew
Point
Rel
Hum
%
Delta-T
°C
Wind Press
QNH
hPa
Press
MSL
hPa
Rain
since 9 am
mm
Dir
 
Spd
km/h
Gust
km/h
Spd
kts
Gust
kts
28/11:30pm - - - - - WSW 15 19 8 10 - - -
28/11:00pm - - - - - SW 13 19 7 10 - - -
28/10:30pm - - - - - WSW 13 19 7 10 - - -
28/10:00pm - - - - - SW 17 24 9 13 - - -
28/09:30pm - - - - - SSW 13 15 7 8 - - -
28/09:00pm - - - - - S 15 19 8 10 - - -
28/08:30pm - - - - - SSW 19 24 10 13 - - -
28/08:00pm - - - - - SW 22 26 12 14 - - -
28/07:30pm - - - - - SW 26 33 14 18 - - -
28/07:00pm - - - - - WSW 20 26 11 14 - - -
28/06:30pm - - - - - WSW 17 19 9 10 - - -
28/06:00pm - - - - - WSW 15 19 8 10 - - -
28/05:30pm - - - - - SW 20 28 11 15 - - -
28/05:00pm - - - - - WNW 13 17 7 9 - - -
28/04:30pm - - - - - WNW 13 15 7 8 - - -
28/04:00pm - - - - - WNW 17 19 9 10 - - -
28/03:30pm - - - - - WNW 15 19 8 10 - - -
28/03:00pm - - - - - W 19 24 10 13 - - -
28/02:30pm - - - - - W 19 26 10 14 - - -
28/02:00pm - - - - - W 22 30 12 16 - - -
28/01:30pm - - - - - WNW 13 15 7 8 - - -
28/12:00pm - - - - - NNW 19 24 10 13 - - -
28/11:30am - - - - - N 22 26 12 14 - - -
28/11:00am - - - - - N 20 26 11 14 - - -
28/10:30am - - - - - NNW 22 28 12 15 - - -
28/10:00am - - - - - NNW 20 26 11 14 - - -
28/09:30am - - - - - NNW 17 22 9 12 - - -
28/09:00am - - - - - NW 17 19 9 10 - - -
28/08:30am - - - - - NW 11 17 6 9 - - -
28/08:00am - - - - - WNW 9 11 5 6 - - -
28/07:30am - - - - - NNE 7 9 4 5 - - -
28/07:00am - - - - - ENE 9 9 5 5 - - -
28/06:30am - - - - - WSW 11 15 6 8 - - -
28/06:00am - - - - - W 9 13 5 7 - - -
28/05:30am - - - - - WSW 19 26 10 14 - - -
28/05:00am - - - - - WSW 13 17 7 9 - - -
28/04:30am - - - - - WSW 17 22 9 12 - - -
28/04:00am - - - - - WSW 9 13 5 7 - - -
28/03:30am - - - - - W 11 15 6 8 - - -
28/03:00am - - - - - WNW 13 15 7 8 - - -
28/02:30am - - - - - NNW 7 9 4 5 - - -
28/02:00am - - - - - N 7 9 4 5 - - -
28/01:30am - - - - - N 7 9 4 5 - - -
28/01:00am - - - - - N 9 11 5 6 - - -
28/12:30am - - - - - NNW 9 9 5 5 - - -
28/12:00am - - - - - NW 9 11 5 6 - - -
 
Date/Time
CST
Temp
°C
App
Temp
°C
Dew
Point
Rel
Hum
%
Delta-T
°C
Wind Press
QNH
hPa
Press
MSL
hPa
Rain
since 9 am
mm
Dir
 
Spd
km/h
Gust
km/h
Spd
kts
Gust
kts
27/11:30pm - - - - - NNE 9 11 5 6 - - -
27/11:00pm - - - - - NE 13 13 7 7 - - -
27/10:30pm - - - - - NE 13 17 7 9 - - -
27/10:00pm - - - - - NE 15 15 8 8 - - -
27/09:30pm - - - - - NE 11 13 6 7 - - -
27/09:00pm - - - - - ENE 15 15 8 8 - - -
27/08:30pm - - - - - E 13 17 7 9 - - -
27/08:00pm - - - - - ENE 11 11 6 6 - - -
27/07:30pm - - - - - NE 11 13 6 7 - - -
27/07:00pm - - - - - ENE 9 11 5 6 - - -
27/06:30pm - - - - - ENE 11 11 6 6 - - -
27/06:00pm - - - - - NE 13 13 7 7 - - -
27/05:30pm - - - - - NE 11 11 6 6 - - -
27/05:00pm - - - - - NE 13 13 7 7 - - -
27/04:30pm - - - - - NNE 13 15 7 8 - - -
27/04:00pm - - - - - NNE 15 17 8 9 - - -
27/03:30pm - - - - - N 13 15 7 8 - - -
27/03:00pm - - - - - N 11 15 6 8 - - -
27/02:30pm - - - - - N 11 11 6 6 - - -
27/02:00pm - - - - - N 11 13 6 7 - - -
27/01:30pm - - - - - N 9 11 5 6 - - -
27/01:00pm - - - - - N 11 13 6 7 - - -
27/12:30pm - - - - - N 11 13 6 7 - - -
27/12:00pm - - - - - N 11 13 6 7 - - -
27/11:30am - - - - - N 13 15 7 8 - - -
27/11:00am - - - - - N 13 17 7 9 - - -
27/10:30am - - - - - NNE 17 22 9 12 - - -
27/10:00am - - - - - NNE 17 22 9 12 - - -
27/09:30am - - - - - NNE 15 19 8 10 - - -
27/09:00am - - - - - NE 13 17 7 9 - - -
27/08:30am - - - - - NE 11 13 6 7 - - -
27/08:00am - - - - - NNE 11 13 6 7 - - -
27/07:30am - - - - - NNE 13 15 7 8 - - -
27/07:00am - - - - - NNE 9 11 5 6 - - -
27/06:30am - - - - - N 7 9 4 5 - - -
27/06:00am - - - - - NNW 13 15 7 8 - - -
27/05:30am - - - - - NNW 11 13 6 7 - - -
27/05:00am - - - - - NNW 15 17 8 9 - - -
27/04:30am - - - - - N 15 19 8 10 - - -
27/04:00am - - - - - N 17 19 9 10 - - -
27/03:30am - - - - - N 17 19 9 10 - - -
27/03:00am - - - - - N 17 20 9 11 - - -
27/02:30am - - - - - N 19 20 10 11 - - -
27/02:00am - - - - - N 15 17 8 9 - - -
27/01:30am - - - - - N 13 15 7 8 - - -
27/01:00am - - - - - NNE 9 11 5 6 - - -
27/12:30am - - - - - NNE 7 9 4 5 - - -
27/12:00am - - - - - NE 13 17 7 9 - - -
 
Date/Time
CST
Temp
°C
App
Temp
°C
Dew
Point
Rel
Hum
%
Delta-T
°C
Wind Press
QNH
hPa
Press
MSL
hPa
Rain
since 9 am
mm
Dir
 
Spd
km/h
Gust
km/h
Spd
kts
Gust
kts
26/11:30pm - - - - - NE 11 13 6 7 - - -
26/11:00pm - - - - - NE 13 15 7 8 - - -
26/10:30pm - - - - - NE 11 11 6 6 - - -
26/10:00pm - - - - - E 11 13 6 7 - - -
26/09:30pm - - - - - W 6 9 3 5 - - -
26/09:00pm - - - - - CALM 0 0 0 0 - - -
26/08:30pm - - - - - W 9 13 5 7 - - -
26/08:00pm - - - - - WSW 15 20 8 11 - - -
26/07:30pm - - - - - CALM 0 0 0 0 - - -
26/07:00pm - - - - - SSW 2 9 1 5 - - -
26/06:30pm - - - - - CALM 0 2 0 1 - - -
26/06:00pm - - - - - NNE 6 7 3 4 - - -
26/05:30pm - - - - - NE 11 13 6 7 - - -
26/05:00pm - - - - - NNE 13 15 7 8 - - -
26/04:30pm - - - - - N 11 19 6 10 - - -
26/04:00pm - - - - - N 15 17 8 9 - - -
26/03:30pm - - - - - NNE 15 19 8 10 - - -
26/03:00pm - - - - - NNE 15 19 8 10 - - -
26/02:30pm - - - - - NNE 13 17 7 9 - - -
26/02:00pm - - - - - N 13 15 7 8 - - -
26/01:30pm - - - - - NNE 13 15 7 8 - - -
26/01:00pm - - - - - NNE 15 17 8 9 - - -
26/12:30pm - - - - - N 13 15 7 8 - - -
26/12:00pm - - - - - N 15 19 8 10 - - -
26/11:30am - - - - - N 13 15 7 8 - - -
26/11:00am - - - - - N 13 17 7 9 - - -
26/10:30am - - - - - NNE 11 15 6 8 - - -
26/10:00am - - - - - NNE 13 15 7 8 - - -
26/09:30am - - - - - NNE 13 17 7 9 - - -
26/09:00am - - - - - ENE 9 11 5 6 - - -
26/08:30am - - - - - ENE 6 9 3 5 - - -
26/08:00am - - - - - NE 9 11 5 6 - - -
26/07:30am - - - - - NE 13 13 7 7 - - -
26/07:00am - - - - - ENE 11 13 6 7 - - -
26/06:30am - - - - - ENE 13 13 7 7 - - -
26/06:00am - - - - - NE 13 15 7 8 - - -
26/05:30am - - - - - NE 15 17 8 9 - - -
26/05:00am - - - - - ENE 13 15 7 8 - - -
26/04:30am - - - - - E 11 13 6 7 - - -
26/04:00am - - - - - ENE 13 13 7 7 - - -
26/03:30am - - - - - NE 15 17 8 9 - - -
26/03:00am - - - - - NE 15 15 8 8 - - -
26/02:30am - - - - - NE 13 13 7 7 - - -
26/02:00am - - - - - E 13 15 7 8 - - -
26/01:30am - - - - - ENE 15 17 8 9 - - -
26/01:00am - - - - - ENE 13 15 7 8 - - -
26/12:30am - - - - - E 13 15 7 8 - - -
26/12:00am - - - - - E 15 17 8 9 - - -

Other Formats:

Comma delimited format used in spreadsheet applications
http://www.bom.gov.au/fwo/IDS60801/IDS60801.94666.axf

JavaScript Object Notation format (JSON) in row-major order
http://www.bom.gov.au/fwo/IDS60801/IDS60801.94666.json